createdAt,value
2022-08-22T00:01:13.553Z,18.08
2022-08-22T00:03:16.332Z,18.63
2022-08-22T00:06:35.348Z,18.35
2022-08-22T00:11:52.993Z,18.14
2022-08-22T00:17:17.434Z,18.15
2022-08-22T00:22:54.913Z,18.42
2022-08-22T00:27:58.457Z,18.35
2022-08-22T00:33:05.159Z,18.71
2022-08-22T00:38:13.923Z,18.44
2022-08-22T00:43:23.862Z,18.51
2022-08-22T00:48:44.249Z,18.47
2022-08-22T00:53:50.486Z,18.37
2022-08-22T00:59:18.033Z,18.54
2022-08-22T01:05:03.712Z,18.40
2022-08-22T01:10:24.650Z,18.49
2022-08-22T01:15:29.462Z,18.53
2022-08-22T01:20:53.477Z,18.53
2022-08-22T01:26:26.879Z,18.51
2022-08-22T01:31:36.891Z,18.52
2022-08-22T01:37:04.929Z,18.52
2022-08-22T01:42:07.518Z,18.57
2022-08-22T01:47:16.229Z,18.31
2022-08-22T01:52:36.388Z,18.18
2022-08-22T01:58:04.111Z,18.22
2022-08-22T02:03:18.561Z,18.23
2022-08-22T02:08:54.157Z,18.32
2022-08-22T02:14:30.764Z,18.34
2022-08-22T02:19:41.615Z,18.29
2022-08-22T02:25:00.873Z,18.23
2022-08-22T02:30:10.083Z,18.29
2022-08-22T02:35:26.166Z,18.23
2022-08-22T02:40:36.500Z,18.19
2022-08-22T02:46:01.628Z,18.07
2022-08-22T02:51:09.972Z,18.13
2022-08-22T02:56:24.497Z,18.16
2022-08-22T03:01:38.258Z,18.21
2022-08-22T03:06:47.145Z,18.42
2022-08-22T03:12:02.247Z,18.41
2022-08-22T03:17:27.872Z,18.40
2022-08-22T03:22:37.677Z,18.70
2022-08-22T03:27:45.380Z,18.37
2022-08-22T03:32:55.715Z,18.33
2022-08-22T03:38:08.978Z,18.51
2022-08-22T03:43:45.156Z,18.66
2022-08-22T03:49:24.941Z,18.68
2022-08-22T03:54:58.880Z,18.74
2022-08-22T04:00:29.142Z,18.74
2022-08-22T04:06:27.495Z,18.88
2022-08-22T04:11:53.489Z,19.20
2022-08-22T04:17:10.888Z,18.89
2022-08-22T04:22:33.620Z,19.09
2022-08-22T04:27:56.004Z,19.17
2022-08-22T04:33:20.526Z,19.53
2022-08-22T04:38:29.998Z,19.54
2022-08-22T04:43:38.241Z,19.52
2022-08-22T04:49:07.903Z,19.58
2022-08-22T04:54:45.570Z,19.53
2022-08-22T04:59:48.197Z,19.73
2022-08-22T05:05:04.415Z,19.90
2022-08-22T05:10:12.541Z,20.02
2022-08-22T05:15:23.212Z,20.06
2022-08-22T05:20:28.943Z,19.99
2022-08-22T05:25:34.709Z,20.18
2022-08-22T05:30:38.801Z,20.15
2022-08-22T05:35:49.251Z,20.04
2022-08-22T05:41:00.267Z,20.05
2022-08-22T05:46:03.972Z,19.88
2022-08-22T05:51:29.665Z,20.06
2022-08-22T05:56:39.622Z,19.92
2022-08-22T06:02:04.326Z,20.06
2022-08-22T06:07:43.001Z,19.99
2022-08-22T06:12:51.443Z,20.04
2022-08-22T06:18:01.879Z,20.21
2022-08-22T06:23:06.576Z,20.25
2022-08-22T06:28:12.876Z,20.30
2022-08-22T06:33:21.512Z,20.24
2022-08-22T06:38:33.668Z,20.30
2022-08-22T06:43:40.377Z,20.32
2022-08-22T06:48:44.403Z,20.33
2022-08-22T06:53:48.521Z,20.35
2022-08-22T06:58:54.431Z,20.50
2022-08-22T07:04:01.063Z,20.45
2022-08-22T07:09:05.557Z,20.32
2022-08-22T07:14:12.457Z,20.27
2022-08-22T07:19:34.179Z,20.22
2022-08-22T07:24:37.214Z,19.85
2022-08-22T07:30:04.651Z,19.71
2022-08-22T07:35:33.708Z,19.83
2022-08-22T07:40:55.017Z,19.93
2022-08-22T07:46:07.633Z,19.92
2022-08-22T07:51:19.587Z,19.81
2022-08-22T07:56:26.305Z,19.78
2022-08-22T08:01:29.885Z,19.71
2022-08-22T08:06:32.611Z,19.78
2022-08-22T08:11:40.194Z,19.88
2022-08-22T08:16:43.959Z,20.20
2022-08-22T08:21:55.384Z,20.14
2022-08-22T08:27:20.129Z,20.19
2022-08-22T08:32:25.077Z,20.38
2022-08-22T08:37:33.564Z,20.62
2022-08-22T08:43:40.475Z,21.02
2022-08-22T08:48:54.158Z,21.32
2022-08-22T08:53:59.396Z,21.48
2022-08-22T08:59:10.019Z,21.93
2022-08-22T09:04:43.998Z,22.19
2022-08-22T09:10:09.707Z,22.45
2022-08-22T09:15:31.571Z,22.51
2022-08-22T09:26:53.257Z,23.25
2022-08-22T09:32:13.222Z,23.37
2022-08-22T09:37:47.834Z,23.50
2022-08-22T09:43:07.225Z,23.61
2022-08-22T09:48:42.481Z,23.68
2022-08-22T09:53:57.195Z,23.66
2022-08-22T09:59:07.116Z,23.77
2022-08-22T10:04:19.493Z,23.93
2022-08-22T10:09:31.356Z,23.74
2022-08-22T10:14:56.177Z,24.22
2022-08-22T10:20:25.143Z,24.52
2022-08-22T10:25:41.852Z,24.51
2022-08-22T10:31:02.212Z,24.79
2022-08-22T10:36:12.073Z,24.87
2022-08-22T10:41:36.347Z,25.17
2022-08-22T10:46:46.282Z,25.09
2022-08-22T10:51:54.685Z,25.33
2022-08-22T10:57:42.029Z,25.78
2022-08-22T11:02:45.093Z,26.05
2022-08-22T11:07:51.174Z,25.98
2022-08-22T11:13:16.752Z,26.02
2022-08-22T11:18:34.717Z,25.96
2022-08-22T11:24:04.743Z,25.98
2022-08-22T11:29:31.274Z,25.72
2022-08-22T11:34:33.814Z,25.75
2022-08-22T11:40:02.259Z,25.68
2022-08-22T11:45:06.542Z,25.89
2022-08-22T11:50:33.135Z,26.14
2022-08-22T11:56:05.303Z,25.81
2022-08-22T12:01:19.179Z,25.69
2022-08-22T12:06:46.732Z,25.77
2022-08-22T12:11:58.841Z,25.90
2022-08-22T12:17:51.006Z,26.07
2022-08-22T12:23:13.872Z,26.29
2022-08-22T12:28:41.135Z,26.27
2022-08-22T12:34:23.502Z,26.24
2022-08-22T12:39:41.131Z,26.37
2022-08-22T12:45:22.160Z,26.49
2022-08-22T12:50:31.520Z,26.34
2022-08-22T12:55:52.514Z,26.19
2022-08-22T13:01:00.933Z,26.27
2022-08-22T13:06:38.059Z,26.47
2022-08-22T13:11:41.893Z,26.70
2022-08-22T13:16:49.144Z,26.76
2022-08-22T13:22:08.622Z,26.99
2022-08-22T13:27:29.869Z,27.05
2022-08-22T13:32:40.282Z,26.70
2022-08-22T13:38:00.780Z,26.63
2022-08-22T13:43:09.727Z,26.88
2022-08-22T13:48:13.960Z,26.67
2022-08-22T13:54:00.358Z,26.89
2022-08-22T13:59:05.782Z,26.93
2022-08-22T14:04:36.021Z,26.75
2022-08-22T14:09:54.333Z,26.30
2022-08-22T14:15:03.645Z,26.31
2022-08-22T14:20:31.981Z,26.62
2022-08-22T14:25:38.139Z,26.80
2022-08-22T14:31:07.305Z,26.22
2022-08-22T14:36:49.045Z,26.18
2022-08-22T14:41:59.458Z,26.01
2022-08-22T14:47:32.331Z,26.01
2022-08-22T14:52:40.689Z,26.11
2022-08-22T14:57:55.722Z,26.14
2022-08-22T15:03:15.073Z,26.04
2022-08-22T15:08:30.926Z,25.97
2022-08-22T15:13:34.236Z,25.94
2022-08-22T15:18:37.056Z,25.93
2022-08-22T15:23:46.955Z,25.86
2022-08-22T15:28:56.625Z,25.81
2022-08-22T15:34:12.913Z,25.95
2022-08-22T15:39:34.015Z,25.90
2022-08-22T15:44:44.307Z,25.77
2022-08-22T15:49:58.288Z,25.53
2022-08-22T15:55:24.128Z,25.45
2022-08-22T16:00:33.310Z,25.09
2022-08-22T16:05:55.428Z,25.11
2022-08-22T16:11:03.967Z,25.21
2022-08-22T16:16:27.496Z,25.04
2022-08-22T16:21:30.053Z,25.07
2022-08-22T16:26:32.661Z,25.23
2022-08-22T16:31:46.977Z,24.79
2022-08-22T16:37:15.601Z,24.49
2022-08-22T16:42:24.178Z,24.35
2022-08-22T16:47:41.790Z,24.31
2022-08-22T16:52:56.355Z,23.88
2022-08-22T16:58:06.420Z,23.84
2022-08-22T17:03:18.371Z,23.69
2022-08-22T17:08:55.144Z,23.64
2022-08-22T17:14:22.294Z,23.40
2022-08-22T17:19:27.507Z,23.16
2022-08-22T17:24:41.692Z,22.84
2022-08-22T17:30:28.892Z,22.72
2022-08-22T17:35:55.070Z,22.54
2022-08-22T17:41:26.633Z,22.40
2022-08-22T17:46:46.597Z,22.23
2022-08-22T17:51:57.613Z,22.18
2022-08-22T17:57:13.133Z,22.04
2022-08-22T18:02:24.994Z,21.95
2022-08-22T18:07:53.613Z,21.78
2022-08-22T18:13:20.281Z,21.71
2022-08-22T18:18:40.096Z,21.62
2022-08-22T18:23:45.928Z,21.56
2022-08-22T18:28:55.706Z,21.44
2022-08-22T18:34:21.142Z,21.39
2022-08-22T18:39:42.411Z,21.30
2022-08-22T18:44:45.915Z,21.19
2022-08-22T18:49:54.643Z,21.17
2022-08-22T18:55:22.494Z,21.17
2022-08-22T19:00:41.093Z,21.07
2022-08-22T19:06:08.404Z,21.17
2022-08-22T19:11:19.503Z,21.28
2022-08-22T19:16:36.828Z,21.32
2022-08-22T19:21:58.164Z,21.33
2022-08-22T19:27:18.501Z,21.33
2022-08-22T19:32:50.049Z,21.39
2022-08-22T19:38:03.893Z,21.24
2022-08-22T19:43:31.731Z,21.23
2022-08-22T19:48:50.207Z,21.30
2022-08-22T19:53:53.265Z,21.29
2022-08-22T19:59:20.510Z,21.18
2022-08-22T20:04:55.181Z,21.22
2022-08-22T20:10:14.623Z,21.17
2022-08-22T20:15:23.095Z,20.97
2022-08-22T20:20:33.984Z,21.05
2022-08-22T20:25:45.601Z,21.07
2022-08-22T20:30:50.303Z,20.97
2022-08-22T20:35:56.318Z,21.01
2022-08-22T20:41:38.203Z,20.97
2022-08-22T20:46:44.007Z,21.05
2022-08-22T20:51:57.631Z,20.95
2022-08-22T20:57:20.131Z,21.10
2022-08-22T21:02:26.711Z,20.82
2022-08-22T21:08:06.029Z,20.73
2022-08-22T21:13:11.499Z,20.62
2022-08-22T21:18:24.888Z,20.81
2022-08-22T21:23:27.251Z,21.30
2022-08-22T21:28:38.232Z,21.32
2022-08-22T21:33:46.259Z,21.20
2022-08-22T21:38:55.107Z,21.16
2022-08-22T21:43:57.608Z,21.02
2022-08-22T21:49:05.027Z,21.23
2022-08-22T21:54:21.443Z,21.04
2022-08-22T21:59:51.401Z,21.23
2022-08-22T22:05:00.752Z,21.13
2022-08-22T22:10:05.861Z,20.95
2022-08-22T22:15:09.692Z,21.09
2022-08-22T22:20:15.354Z,21.10
2022-08-22T22:25:40.573Z,21.15
2022-08-22T22:30:43.551Z,21.13
2022-08-22T22:35:46.075Z,21.05
2022-08-22T22:40:48.709Z,21.05
2022-08-22T22:45:51.459Z,21.04
2022-08-22T22:50:54.810Z,21.08
2022-08-22T22:55:59.974Z,21.06
2022-08-22T23:01:24.198Z,20.95
2022-08-22T23:06:28.578Z,20.84
2022-08-22T23:11:31.664Z,21.26
2022-08-22T23:16:37.271Z,21.22
2022-08-22T23:21:40.570Z,21.16
2022-08-22T23:26:43.630Z,21.00
2022-08-22T23:31:55.280Z,20.99
2022-08-22T23:37:01.455Z,21.12
2022-08-22T23:42:04.396Z,21.09
2022-08-22T23:47:07.746Z,21.08
2022-08-22T23:52:12.621Z,20.77
2022-08-22T23:57:15.385Z,20.78
